Time;durP1;ratioP1;P1;durP2;ratioP2;P2;SDS_P1;SDS_P2;PMS_P1;PMS_P2;Temp;Humidity;BMP_temperature;BMP_pressure;BME280_temperature;BME280_humidity;BME280_pressure;Samples;Min_cycle;Max_cycle;Signal;HPM_P1;HPM_P2
2022/12/17 13:07:20;;;;;;;39.87;24.03;;;;;;;3.41;50.10;99693.25;6981691;28;20221;-82
2022/12/17 13:10:59;;;;;;;42.53;24.73;;;;;;;3.58;48.47;99689.91;6970842;28;20214;-79
2022/12/17 13:14:23;;;;;;;36.13;23.30;;;;;;;3.22;48.38;99675.44;6960863;28;20241;-81
2022/12/17 13:17:55;;;;;;;38.90;24.70;;;;;;;3.01;49.73;99697.84;6964290;28;20194;-80
2022/12/17 13:21:28;;;;;;;40.37;24.10;;;;;;;3.46;49.28;99686.56;6966286;28;20245;-79
2022/12/17 13:24:51;;;;;;;41.70;23.93;;;;;;;2.52;50.16;99673.81;6978789;28;20565;-82
2022/12/17 13:28:29;;;;;;;38.77;23.47;;;;;;;2.56;51.40;99693.88;6986015;28;20226;-87
2022/12/17 13:32:03;;;;;;;41.90;22.97;;;;;;;2.44;51.40;99709.09;6984832;28;20581;-82
2022/12/17 13:35:32;;;;;;;39.90;23.03;;;;;;;2.80;50.95;99707.69;6989350;28;20217;-83
2022/12/17 13:39:00;;;;;;;49.97;28.00;;;;;;;2.42;51.20;99702.22;6969378;28;20226;-84
2022/12/17 13:42:27;;;;;;;45.70;25.10;;;;;;;2.45;52.27;99678.84;6953945;28;20265;-86
2022/12/17 13:45:51;;;;;;;38.67;23.97;;;;;;;2.93;50.76;99689.66;6976312;28;20307;-83
2022/12/17 13:49:17;;;;;;;40.80;23.70;;;;;;;2.77;49.95;99644.91;6985172;28;20257;-85
2022/12/17 13:52:39;;;;;;;44.00;25.63;;;;;;;3.70;48.83;99697.66;6980400;28;20209;-85
2022/12/17 13:56:02;;;;;;;40.70;23.77;;;;;;;3.88;48.36;99681.75;6980903;28;20237;-85
2022/12/17 13:59:24;;;;;;;45.17;25.17;;;;;;;3.79;48.00;99691.44;6984472;28;20792;-86
2022/12/17 14:02:46;;;;;;;38.37;24.30;;;;;;;2.89;50.25;99702.41;6985039;28;20285;-85
2022/12/17 14:06:08;;;;;;;37.17;24.47;;;;;;;3.71;48.21;99699.31;6986460;28;20222;-85
2022/12/17 14:09:33;;;;;;;39.87;24.20;;;;;;;3.92;48.00;99705.38;6984123;28;20226;-85
2022/12/17 14:13:04;;;;;;;36.63;22.33;;;;;;;4.11;47.55;99705.34;6982104;28;20202;-85
2022/12/17 14:16:25;;;;;;;54.30;30.17;;;;;;;3.62;47.60;99688.66;7001078;28;20197;-84
2022/12/17 14:19:48;;;;;;;52.47;31.00;;;;;;;3.48;49.21;99716.56;6997342;28;20297;-84
2022/12/17 14:23:13;;;;;;;55.40;29.87;;;;;;;2.77;50.01;99654.75;6954618;28;20299;-84
2022/12/17 14:26:35;;;;;;;49.17;28.80;;;;;;;2.94;50.10;99704.66;7004676;28;20216;-83
2022/12/17 14:29:58;;;;;;;46.07;27.40;;;;;;;3.53;48.86;99721.47;7016403;28;20233;-83
2022/12/17 14:33:33;;;;;;;40.20;24.77;;;;;;;3.12;48.68;99669.25;7017515;28;20220;-83
2022/12/17 14:36:59;;;;;;;43.63;25.67;;;;;;;3.28;47.80;99720.19;7017535;28;20197;-83
2022/12/17 14:40:22;;;;;;;52.83;30.93;;;;;;;2.51;50.01;99723.56;6989475;28;21005;-86
2022/12/17 14:43:44;;;;;;;55.50;32.47;;;;;;;2.98;49.90;99717.59;6957574;28;20616;-85
2022/12/17 14:47:14;;;;;;;55.37;33.23;;;;;;;2.98;49.70;99696.28;6956926;28;20227;-85
2022/12/17 14:50:37;;;;;;;47.57;31.70;;;;;;;2.92;49.14;99723.47;6960975;28;20769;-86
2022/12/17 14:54:18;;;;;;;39.70;25.77;;;;;;;2.89;49.39;99707.75;6959997;28;20195;-86
2022/12/17 14:57:40;;;;;;;45.80;26.20;;;;;;;2.87;49.29;99696.38;6977322;28;20215;-85
2022/12/17 15:01:06;;;;;;;40.57;25.27;;;;;;;3.12;48.53;99717.19;6973907;28;20222;-86
2022/12/17 15:04:35;;;;;;;41.87;24.40;;;;;;;2.91;47.36;99691.63;6989937;28;20207;-85
2022/12/17 15:11:57;;;;;;;42.87;26.33;;;;;;;2.66;49.03;99727.53;7011418;28;20209;-85
2022/12/17 15:15:55;;;;;;;41.87;26.13;;;;;;;2.36;49.63;99727.53;6989796;28;20206;-84
2022/12/17 15:19:32;;;;;;;45.10;26.60;;;;;;;1.80;49.44;99597.72;6961854;28;20230;-85
2022/12/17 15:27:19;;;;;;;62.40;35.97;;;;;;;2.05;49.98;99757.72;7126604;27;20574;-86
2022/12/17 15:30:45;;;;;;;57.17;32.20;;;;;;;1.44;50.03;99649.50;7124022;27;20281;-85
2022/12/17 15:34:07;;;;;;;48.67;26.67;;;;;;;1.89;50.08;99759.94;7137452;27;20577;-86
2022/12/17 15:37:29;;;;;;;46.10;25.67;;;;;;;1.34;50.31;99696.41;7149845;27;20673;-84
2022/12/17 15:40:51;;;;;;;53.50;29.83;;;;;;;1.60;49.89;99752.72;7150193;27;20232;-84
2022/12/17 15:44:13;;;;;;;48.63;31.03;;;;;;;1.46;50.72;99760.94;7154362;27;20202;-85
2022/12/17 15:47:35;;;;;;;52.60;28.80;;;;;;;1.17;51.13;99759.81;7153195;27;20197;-84
2022/12/17 15:50:57;;;;;;;56.67;31.50;;;;;;;1.25;50.93;99771.50;7153946;27;20422;-87
2022/12/17 15:54:18;;;;;;;58.70;34.73;;;;;;;1.12;50.62;99751.38;7144927;27;20186;-85
2022/12/17 15:57:40;;;;;;;57.90;32.67;;;;;;;1.14;50.34;99752.94;7146892;27;20187;-84
2022/12/17 16:01:07;;;;;;;57.40;31.30;;;;;;;0.95;50.45;99754.53;7141561;27;20309;-85
2022/12/17 16:04:28;;;;;;;52.93;30.07;;;;;;;0.81;50.84;99723.78;7147636;27;20222;-84
2022/12/17 16:07:50;;;;;;;55.90;29.40;;;;;;;1.02;50.88;99769.00;7145492;27;20226;-84
2022/12/17 16:11:14;;;;;;;50.37;28.13;;;;;;;0.92;50.03;99762.72;7146633;27;20225;-85
2022/12/17 16:14:36;;;;;;;49.03;27.97;;;;;;;0.60;50.98;99789.13;7134273;27;20194;-84
2022/12/17 16:17:59;;;;;;;46.57;27.93;;;;;;;-0.27;52.20;99736.75;7149138;27;20216;-83
2022/12/17 16:21:20;;;;;;;53.60;28.83;;;;;;;0.20;52.62;99809.06;7150286;27;20220;-84
2022/12/17 16:24:51;;;;;;;51.43;27.73;;;;;;;-0.17;52.94;99766.91;7150028;27;20223;-83
2022/12/17 16:28:16;;;;;;;52.50;28.60;;;;;;;0.40;52.41;99794.28;7151881;27;20219;-82
2022/12/17 16:31:38;;;;;;;51.43;29.53;;;;;;;0.36;52.10;99801.66;7150805;27;20204;-83
2022/12/17 16:35:01;;;;;;;62.57;35.80;;;;;;;0.19;51.77;99806.56;7147604;27;20194;-83
2022/12/17 16:38:23;;;;;;;62.47;31.77;;;;;;;0.25;51.79;99793.66;7122913;27;20668;-82
2022/12/17 16:41:45;;;;;;;75.60;39.93;;;;;;;-0.46;53.19;99752.34;7099548;27;20216;-82
2022/12/17 16:45:08;;;;;;;86.20;47.77;;;;;;;-0.33;52.42;99755.75;7118245;27;20309;-82
2022/12/17 16:48:29;;;;;;;163.10;86.23;;;;;;;-0.18;52.75;99789.03;7122816;27;20218;-83
2022/12/17 16:51:54;;;;;;;68.20;39.83;;;;;;;-0.03;51.92;99791.44;7122344;27;20199;-82
2022/12/17 16:55:15;;;;;;;66.50;35.33;;;;;;;-0.70;52.97;99811.53;7123989;27;20199;-78
2022/12/17 16:58:37;;;;;;;61.27;34.23;;;;;;;-1.03;53.81;99726.59;7117298;27;20298;-83
2022/12/17 17:01:59;;;;;;;50.40;28.80;;;;;;;-0.18;52.81;99806.78;7097671;27;20214;-83
2022/12/17 17:05:20;;;;;;;55.67;29.93;;;;;;;-0.13;52.06;99806.31;7105273;27;20237;-84
2022/12/17 17:08:44;;;;;;;51.20;30.10;;;;;;;-0.34;52.26;99795.59;7120458;27;20218;-83
2022/12/17 17:12:07;;;;;;;60.60;31.80;;;;;;;-0.48;52.50;99793.13;7123107;27;20204;-83
2022/12/17 17:15:29;;;;;;;63.23;33.50;;;;;;;-0.63;52.44;99791.59;7122682;27;20199;-83
2022/12/17 17:18:51;;;;;;;59.90;34.37;;;;;;;-0.47;52.85;99814.22;7121498;27;20286;-84
2022/12/17 17:22:13;;;;;;;58.20;36.43;;;;;;;-0.74;53.33;99820.63;7097692;27;20244;-81
2022/12/17 17:25:37;;;;;;;55.80;33.10;;;;;;;-0.55;53.17;99811.25;7105547;27;20238;-83
2022/12/17 17:28:59;;;;;;;55.13;32.23;;;;;;;-0.53;52.59;99795.28;7122384;27;20232;-84
2022/12/17 17:32:20;;;;;;;70.13;37.83;;;;;;;-1.07;54.35;99829.16;7121579;27;20659;-78
2022/12/17 17:35:42;;;;;;;62.20;33.50;;;;;;;-1.20;54.23;99817.75;7092848;27;20276;-78
2022/12/17 17:39:04;;;;;;;66.57;31.90;;;;;;;-1.27;54.12;99821.78;7092036;27;20360;-80
2022/12/17 17:42:27;;;;;;;63.57;32.20;;;;;;;-1.52;55.74;99823.59;7099189;27;20204;-80
2022/12/17 17:45:48;;;;;;;61.23;32.27;;;;;;;-1.46;54.10;99723.53;7116063;27;20216;-80
2022/12/17 17:49:10;;;;;;;58.93;30.37;;;;;;;-0.87;53.21;99815.41;7115128;27;20719;-79
2022/12/17 17:52:32;;;;;;;55.47;29.13;;;;;;;-0.73;52.78;99840.88;7109855;27;20281;-79
2022/12/17 17:55:54;;;;;;;58.37;31.13;;;;;;;-0.74;52.62;99849.75;7115345;27;20203;-80
2022/12/17 17:59:18;;;;;;;58.07;32.03;;;;;;;-1.10;52.97;99855.00;7116386;27;20300;-79
2022/12/17 18:02:39;;;;;;;57.33;32.07;;;;;;;-0.83;52.80;99864.50;7092976;27;20247;-79
2022/12/17 18:06:01;;;;;;;63.80;35.20;;;;;;;-1.25;52.11;99796.06;7116479;27;20309;-80
2022/12/17 18:09:23;;;;;;;54.00;31.17;;;;;;;-0.89;51.43;99856.16;7115662;27;20219;-79
2022/12/17 18:16:38;;;;;;;51.30;28.20;;;;;;;-1.38;50.55;99865.78;7027156;27;20531;-79
2022/12/17 18:20:00;;;;;;;47.00;25.97;;;;;;;-1.71;50.64;99789.63;7114640;27;20221;-79
2022/12/17 18:27:39;;;;;;;60.13;29.50;;;;;;;-1.73;51.11;99788.88;7107167;27;20238;-79
2022/12/17 18:31:06;;;;;;;47.40;28.20;;;;;;;-1.96;51.44;99847.72;7113684;27;20676;-80
2022/12/17 18:34:29;;;;;;;69.03;34.47;;;;;;;-2.34;52.78;99819.50;7115212;27;20189;-80
2022/12/17 18:38:10;;;;;;;93.90;48.70;;;;;;;-1.89;52.90;99841.09;7112163;27;20199;-79
2022/12/17 18:50:14;;;;;;;52.53;30.50;;;;;;;-1.60;51.47;99863.75;7088433;27;20242;-79
2022/12/17 18:53:35;;;;;;;56.27;31.43;;;;;;;-1.95;51.94;99811.59;7114280;27;20207;-78
2022/12/17 18:56:57;;;;;;;52.60;30.40;;;;;;;-1.68;51.22;99868.72;7112765;27;20208;-79
2022/12/17 19:00:19;;;;;;;48.27;28.00;;;;;;;-1.54;51.11;99865.16;7113630;27;20251;-78
2022/12/17 19:03:40;;;;;;;57.17;29.63;;;;;;;-1.85;51.36;99865.50;7108949;27;20822;-78
2022/12/17 19:07:04;;;;;;;51.07;29.47;;;;;;;-2.09;51.20;99875.91;7112904;27;20228;-78
2022/12/17 19:10:25;;;;;;;56.30;29.63;;;;;;;-2.49;53.40;99889.16;7124924;27;20229;-77
2022/12/17 19:13:48;;;;;;;56.63;28.57;;;;;;;-2.03;52.51;99890.50;7111047;27;20222;-79
2022/12/17 19:17:09;;;;;;;51.07;28.07;;;;;;;-2.19;51.84;99892.47;7113610;27;20223;-80
2022/12/17 19:20:31;;;;;;;53.97;31.00;;;;;;;-2.47;52.30;99898.69;7096722;27;20227;-77
2022/12/17 19:23:59;;;;;;;58.33;29.00;;;;;;;-2.55;52.71;99886.91;7085397;27;20340;-79
2022/12/17 19:27:20;;;;;;;46.17;26.60;;;;;;;-1.95;51.84;99896.16;7084633;27;20257;-79
2022/12/17 19:30:42;;;;;;;55.03;31.73;;;;;;;-2.46;51.59;99902.16;7094565;27;20260;-79
2022/12/17 19:34:06;;;;;;;68.70;34.07;;;;;;;-2.39;51.85;99906.94;7112506;27;20232;-80
2022/12/17 19:37:27;;;;;;;63.30;32.03;;;;;;;-2.28;51.87;99924.75;7115250;27;20266;-77
2022/12/17 19:40:51;;;;;;;70.07;34.27;;;;;;;-2.31;51.42;99923.13;7107081;27;20756;-79
2022/12/17 19:44:14;;;;;;;61.07;29.30;;;;;;;-2.27;51.96;99944.91;7113863;27;20735;-76
2022/12/17 19:47:36;;;;;;;55.80;30.50;;;;;;;-2.54;51.40;99928.19;7112217;27;20710;-79
2022/12/17 19:50:57;;;;;;;54.23;29.10;;;;;;;-2.77;52.82;99928.78;7112889;27;20321;-79
2022/12/17 19:54:19;;;;;;;50.10;29.03;;;;;;;-2.26;51.16;99938.72;7113066;27;20233;-77
2022/12/17 19:57:42;;;;;;;62.47;32.67;;;;;;;-2.85;51.66;99939.81;7112113;27;20319;-79
2022/12/17 20:01:06;;;;;;;54.27;30.83;;;;;;;-2.82;52.04;99934.34;7106877;27;20284;-80
2022/12/17 20:04:27;;;;;;;60.43;32.97;;;;;;;-2.83;51.71;99945.00;7105875;27;20204;-79
2022/12/17 20:07:49;;;;;;;55.77;28.73;;;;;;;-2.90;52.29;99946.31;7083337;27;20307;-79
2022/12/17 20:14:49;;;;;;;52.47;27.27;;;;;;;-2.38;51.45;99918.34;7088790;27;20232;-78
2022/12/17 20:18:10;;;;;;;51.07;26.63;;;;;;;-3.36;51.22;99935.03;7089616;27;20665;-78
2022/12/17 20:21:32;;;;;;;47.80;25.60;;;;;;;-2.72;51.50;99932.81;7092333;27;20209;-79
2022/12/17 20:24:53;;;;;;;47.80;27.43;;;;;;;-2.56;51.51;99944.13;7088701;27;20342;-79
2022/12/17 20:28:15;;;;;;;44.73;24.03;;;;;;;-2.42;50.83;99941.44;7089490;27;20719;-78
2022/12/17 20:31:38;;;;;;;40.33;24.07;;;;;;;-2.36;49.71;99930.50;7090205;27;20300;-78
2022/12/17 20:35:00;;;;;;;49.87;25.13;;;;;;;-2.82;49.58;99905.31;7088769;27;20209;-78
2022/12/17 20:38:21;;;;;;;51.00;28.33;;;;;;;-2.90;49.92;99914.66;7090932;27;20363;-78
2022/12/17 20:41:44;;;;;;;41.67;24.53;;;;;;;-2.61;49.62;99919.81;7089147;27;20294;-78
2022/12/17 20:45:06;;;;;;;47.03;24.43;;;;;;;-2.73;50.22;99919.75;7089016;27;20298;-77
2022/12/17 20:48:29;;;;;;;36.70;22.67;;;;;;;-2.82;49.41;99920.28;7089887;27;20721;-79
2022/12/17 20:51:50;;;;;;;43.43;24.30;;;;;;;-2.93;50.00;99899.88;7089313;27;20225;-77
2022/12/17 20:55:12;;;;;;;45.83;24.30;;;;;;;-3.18;50.07;99919.91;7088090;27;20344;-77
2022/12/17 20:58:33;;;;;;;47.53;25.33;;;;;;;-3.70;51.55;99916.03;7088634;27;20311;-77
2022/12/17 21:01:55;;;;;;;109.10;45.43;;;;;;;-4.10;53.71;99924.53;7088333;27;20306;-78
2022/12/17 21:05:18;;;;;;;56.90;29.77;;;;;;;-3.96;53.27;99903.53;7087109;27;20289;-77
2022/12/17 21:08:40;;;;;;;49.70;25.90;;;;;;;-3.94;54.04;99913.06;7087919;27;20226;-78
2022/12/17 21:12:02;;;;;;;46.07;25.20;;;;;;;-3.63;53.39;99905.06;7086971;27;20211;-78
2022/12/17 21:15:31;;;;;;;38.57;22.47;;;;;;;-3.39;53.06;99943.13;7087608;27;20334;-77
2022/12/17 21:18:52;;;;;;;45.97;24.73;;;;;;;-3.19;52.20;99931.41;7088051;27;20226;-77
2022/12/17 21:22:15;;;;;;;42.87;22.43;;;;;;;-3.20;51.84;99908.63;7087406;27;20216;-77
2022/12/17 21:25:39;;;;;;;38.97;20.80;;;;;;;-3.15;51.12;99925.84;7097305;27;20290;-77
2022/12/17 21:29:03;;;;;;;44.17;23.23;;;;;;;-3.81;51.96;99902.63;7115758;27;20268;-78
2022/12/17 21:32:24;;;;;;;35.87;22.53;;;;;;;-3.75;53.23;99931.25;7115918;27;20200;-78
2022/12/17 21:35:46;;;;;;;38.10;20.30;;;;;;;-3.99;54.33;99932.66;7115135;27;20336;-77
2022/12/17 21:39:11;;;;;;;42.67;21.93;;;;;;;-3.60;53.45;99911.94;7113860;27;20266;-77
2022/12/17 21:46:12;;;;;;;42.07;20.60;;;;;;;-3.56;51.69;99932.72;7115079;27;20207;-78
2022/12/17 21:49:34;;;;;;;40.33;20.30;;;;;;;-4.00;53.59;99928.34;7115136;27;20236;-77
2022/12/17 21:52:55;;;;;;;33.60;19.50;;;;;;;-4.15;53.69;99887.94;7115046;27;20263;-77
2022/12/17 21:56:18;;;;;;;52.90;27.77;;;;;;;-4.07;54.46;99953.34;7098764;27;20695;-77
2022/12/17 21:59:40;;;;;;;42.00;21.87;;;;;;;-3.88;53.94;99948.72;7086987;27;20233;-77
2022/12/17 22:03:02;;;;;;;40.77;21.50;;;;;;;-3.92;54.05;99949.81;7086992;27;20417;-78
2022/12/17 22:06:25;;;;;;;33.87;18.23;;;;;;;-3.92;53.72;99939.28;7085489;27;20292;-77
2022/12/17 22:09:47;;;;;;;38.53;21.57;;;;;;;-4.04;53.98;99929.44;7086491;27;20217;-77
2022/12/17 22:16:49;;;;;;;38.17;22.00;;;;;;;-4.04;54.34;99966.31;7086099;27;20197;-77
2022/12/17 22:20:11;;;;;;;42.13;22.27;;;;;;;-4.02;54.66;99970.56;7087678;27;20365;-78
2022/12/17 22:23:33;;;;;;;43.90;23.13;;;;;;;-3.80;54.37;99957.88;7112312;27;20279;-78
2022/12/17 22:26:58;;;;;;;40.70;22.73;;;;;;;-3.72;53.70;99947.72;7113973;27;20357;-78
2022/12/17 22:34:00;;;;;;;52.67;28.43;;;;;;;-3.79;51.96;99933.22;7113992;27;20177;-78
2022/12/17 22:37:22;;;;;;;52.80;29.03;;;;;;;-4.48;51.86;99955.63;7114040;27;20791;-79
2022/12/17 22:40:43;;;;;;;43.53;26.07;;;;;;;-4.35;53.67;99937.38;7113635;27;20218;-77
2022/12/17 22:44:04;;;;;;;38.50;23.50;;;;;;;-3.57;53.43;99953.91;7114904;27;20209;-79
2022/12/17 22:47:27;;;;;;;39.13;21.43;;;;;;;-3.75;52.56;99947.06;7113865;27;20257;-78
2022/12/17 22:50:48;;;;;;;55.57;25.63;;;;;;;-3.90;51.83;99950.59;7113860;27;20353;-78
2022/12/17 22:54:11;;;;;;;40.43;21.80;;;;;;;-3.68;51.74;99944.00;7114644;27;20270;-78
2022/12/17 22:57:33;;;;;;;40.40;21.87;;;;;;;-3.56;51.72;99967.00;7113982;27;20231;-79
2022/12/17 23:00:54;;;;;;;60.33;29.60;;;;;;;-3.83;51.12;99957.19;7114131;27;20314;-78
2022/12/17 23:04:17;;;;;;;52.20;28.03;;;;;;;-4.14;52.88;99955.44;7114634;27;20235;-78
2022/12/17 23:07:39;;;;;;;49.27;26.73;;;;;;;-3.88;52.43;99927.63;7113596;27;20228;-78
2022/12/17 23:11:05;;;;;;;47.80;25.90;;;;;;;-3.84;52.46;99961.59;7100713;27;20229;-78
2022/12/17 23:14:27;;;;;;;45.53;23.53;;;;;;;-3.73;52.25;99959.22;7085610;27;20283;-78
2022/12/17 23:17:48;;;;;;;43.53;24.30;;;;;;;-3.85;52.25;99957.28;7085243;27;20292;-78
2022/12/17 23:21:14;;;;;;;48.13;24.47;;;;;;;-3.53;51.40;99943.13;7085179;27;20226;-79
2022/12/17 23:24:35;;;;;;;37.20;20.13;;;;;;;-3.76;50.80;99946.22;7085882;27;20716;-78
2022/12/17 23:27:57;;;;;;;45.43;26.03;;;;;;;-3.95;50.98;99953.47;7113406;27;20709;-78
2022/12/17 23:31:20;;;;;;;44.20;23.20;;;;;;;-4.32;51.98;99956.47;7114105;27;20625;-78
2022/12/17 23:34:41;;;;;;;45.93;25.40;;;;;;;-4.41;53.40;99958.78;7114413;27;20199;-78
2022/12/17 23:38:04;;;;;;;41.20;20.97;;;;;;;-4.45;53.47;99963.34;7113903;27;20246;-78
2022/12/17 23:41:27;;;;;;;43.20;22.27;;;;;;;-3.86;52.63;99966.13;7113416;27;20517;-77
2022/12/17 23:44:49;;;;;;;34.97;17.87;;;;;;;-3.69;52.06;99946.72;7113842;27;20271;-78
2022/12/17 23:48:10;;;;;;;32.47;19.60;;;;;;;-3.64;52.11;99957.84;7118033;27;20345;-78
2022/12/17 23:51:33;;;;;;;33.33;18.60;;;;;;;-3.71;50.72;99959.97;7119425;27;20290;-78
2022/12/17 23:54:55;;;;;;;39.07;19.87;;;;;;;-3.85;51.53;99973.09;7116172;27;20201;-79
2022/12/17 23:58:17;;;;;;;37.90;19.77;;;;;;;-3.78;51.20;99952.53;7090723;27;20265;-78
